Cap Lara — SXBW — position and weather

sailwx.info

Track history (hours):
 
Tides and Currents Weather Stations Pressure Air Temp Water Temp Dewpoint Dewpoint Depression Visibility Wind Speed Wind Dir Waves Ship Positions

Cap Lara

Last reported at 2017-Dec-11 15:55 UTC. Time now 2017-Dec-14 08:22 UTC.
Position N 45°41' W 128°58'.

Length 274 m; draft 9 m.

Type: Tanker. MMSI: 240592000.

Date/timePositionNaut miles runAvg speedWind from/ knotsBaromVisibWave heightAir tempDewpointWater temp
2017-Dec-11 15:55N 45°41' W 128°58'1010.6
2017-Dec-11 14:58N 45°51' W 128°56'3 6.7
2017-Dec-11 14:27N 45°54' W 128°54'511.1
2017-Dec-11 14:00N 45°58' W 128°50'612.8
2017-Dec-11 13:31N 46°02' W 128°44'1712.9
2017-Dec-11 12:14N 46°14' W 128°27'313.0
2017-Dec-11 12:01N 46°16' W 128°24'612.9
2017-Dec-11 11:31N 46°21' W 128°17'612.8
2017-Dec-11 11:01N 46°25' W 128°11'713.0
2017-Dec-11 10:31N 46°30' W 128°04'612.9
2017-Dec-11 10:01N 46°34' W 127°57'713.1
2017-Dec-11 09:30N 46°39' W 127°50'713.2
2017-Dec-11 09:01N 46°43' W 127°43'913.2
2017-Dec-11 08:20N 46°49' W 127°34'413.2
2017-Dec-11 08:01N 46°52' W 127°29'713.1
2017-Dec-11 07:31N 46°57' W 127°22'713.0
2017-Dec-11 07:00N 47°01' W 127°16'713.0
2017-Dec-11 06:30N 47°06' W 127°09'813.1
2017-Dec-11 05:55N 47°11' W 127°00'513.1
2017-Dec-11 05:30N 47°15' W 126°55'713.2
2017-Dec-11 05:00N 47°20' W 126°48'713.1
2017-Dec-11 04:31N 47°24' W 126°41'713.0
2017-Dec-11 03:58N 47°29' W 126°34'613.0
2017-Dec-11 03:30N 47°33' W 126°27'712.9
2017-Dec-11 03:00N 47°38' W 126°20'612.7
2017-Dec-11 02:31N 47°42' W 126°14'712.9
2017-Dec-11 01:59N 47°47' W 126°06'613.1
2017-Dec-11 01:30N 47°51' W 125°60'713.2
2017-Dec-11 01:00N 47°56' W 125°52'713.4
2017-Dec-11 00:30N 48°00' W 125°45'713.6
2017-Dec-11 00:00N 48°05' W 125°38'714.1
2017-Dec-10 23:30N 48°10' W 125°31'713.6
2017-Dec-10 23:00N 48°15' W 125°23'713.2
2017-Dec-10 22:30N 48°19' W 125°16'713.6
2017-Dec-10 22:00N 48°24' W 125°09'714.1
2017-Dec-10 21:31N 48°30' W 125°02'714.3
2017-Dec-10 21:01N 48°31' W 124°52'714.0
2017-Dec-10 20:31N 48°30' W 124°41'714.7
2017-Dec-10 20:01N 48°27' W 124°31'815.7
2017-Dec-10 19:30N 48°24' W 124°20'714.9
2017-Dec-10 19:01N 48°21' W 124°10'814.9
2017-Dec-10 18:30N 48°18' W 123°59'714.8
2017-Dec-10 18:00N 48°17' W 123°48'714.3
2017-Dec-10 17:31N 48°16' W 123°38'713.6
2017-Dec-10 17:00N 48°14' W 123°28'612.3
2017-Dec-10 16:30N 48°09' W 123°23'2 2.7
2017-Dec-10 15:57N 48°08' W 123°25'0 0.0
2017-Dec-10 15:24N 48°08' W 123°25'0 0.0
2017-Dec-10 15:00N 48°08' W 123°25'0 0.1
2017-Dec-10 14:30N 48°08' W 123°25'0 0.0
2017-Dec-10 13:57N 48°08' W 123°25'0 0.0
2017-Dec-10 13:27N 48°08' W 123°25'0 0.0
2017-Dec-10 13:00N 48°08' W 123°25'0 0.0
2017-Dec-10 12:30N 48°08' W 123°25'0 0.0
2017-Dec-10 12:00N 48°08' W 123°25'0 0.2
2017-Dec-10 11:30N 48°08' W 123°25'0 0.3
2017-Dec-10 11:00N 48°08' W 123°25'0 0.1
2017-Dec-10 10:27N 48°08' W 123°25'0 0.0
2017-Dec-10 09:57N 48°08' W 123°25'0 0.1
2017-Dec-10 09:27N 48°08' W 123°25'0 0.1
2017-Dec-10 09:00N 48°08' W 123°25'0 0.0
2017-Dec-10 08:27N 48°08' W 123°25'0 0.0
2017-Dec-10 08:00N 48°08' W 123°25'0 0.0
2017-Dec-10 07:27N 48°08' W 123°25'0 0.0
2017-Dec-10 07:00N 48°08' W 123°25'0 0.1
2017-Dec-10 06:24N 48°08' W 123°25'0 0.1
2017-Dec-10 04:24N 48°08' W 123°25'0 0.1
2017-Dec-10 03:39N 48°08' W 123°25'0 0.0
2017-Dec-10 03:24N 48°08' W 123°25'0 0.0
2017-Dec-10 03:00N 48°08' W 123°25'0 0.2
2017-Dec-10 02:30N 48°08' W 123°25'0 0.3
2017-Dec-10 02:00N 48°08' W 123°25'0 0.3
2017-Dec-10 01:30N 48°08' W 123°25'0 0.2
2017-Dec-10 00:54N 48°08' W 123°25'0 0.0
2017-Dec-10 00:27N 48°08' W 123°25'0 0.0
2017-Dec-09 23:45N 48°08' W 123°25'0 0.0
2017-Dec-09 23:30N 48°08' W 123°25'0 0.1
2017-Dec-09 23:00N 48°08' W 123°25'1 1.5
2017-Dec-09 22:30N 48°08' W 123°24'4 7.7
2017-Dec-09 22:00N 48°10' W 123°19'815.6
2017-Dec-09 21:30N 48°15' W 123°10'815.5
2017-Dec-09 21:00N 48°19' W 123°00'816.1
2017-Dec-09 20:30N 48°24' W 122°50'714.6
2017-Dec-09 20:00N 48°30' W 122°44'714.4
2017-Dec-09 19:30N 48°37' W 122°45'713.2
2017-Dec-09 19:00N 48°44' W 122°46'612.7
2017-Dec-09 18:30N 48°50' W 122°46'2 0.1
2017-Dec-08 11:24N 48°52' W 122°46'0 1.2
2017-Dec-08 11:00N 48°52' W 122°46'3 6.5
2017-Dec-08 10:28N 48°52' W 122°52'511.5
2017-Dec-08 10:00N 48°49' W 122°58'5 9.5
2017-Dec-08 09:29N 48°45' W 123°04'4 9.3
2017-Dec-08 09:00N 48°43' W 123°10'4 8.4
2017-Dec-08 08:30N 48°41' W 123°15'4 8.5
2017-Dec-08 08:01N 48°37' W 123°14'4 8.6
2017-Dec-08 07:30N 48°33' W 123°12'4 8.2
2017-Dec-08 07:00N 48°29' W 123°10'4 7.9
2017-Dec-08 06:30N 48°25' W 123°10'4 7.3
2017-Dec-08 06:00N 48°22' W 123°13'611.2
2017-Dec-08 05:30N 48°17' W 123°17'713.1
2017-Dec-08 05:00N 48°11' W 123°21'4 8.5
2017-Dec-08 04:31N 48°08' W 123°25'0 0.2
2017-Dec-08 04:00N 48°08' W 123°25'0 0.0
2017-Dec-08 03:29N 48°08' W 123°25'0 0.0
2017-Dec-08 02:56N 48°08' W 123°25'0 0.0
2017-Dec-08 02:30N 48°08' W 123°25'0 0.0
2017-Dec-08 01:59N 48°08' W 123°25'0 0.1
2017-Dec-08 01:30N 48°08' W 123°25'0 0.1
2017-Dec-08 01:00N 48°08' W 123°25'0 0.0
2017-Dec-08 00:29N 48°08' W 123°25'0 0.1
2017-Dec-07 23:53N 48°08' W 123°25'0 0.0
2017-Dec-07 23:14N 48°08' W 123°25'0 0.1
2017-Dec-07 22:56N 48°08' W 123°25'0 0.1
2017-Dec-07 22:30N 48°08' W 123°25'0 0.1
2017-Dec-07 21:57N 48°08' W 123°25'0 0.1
2017-Dec-07 21:26N 48°08' W 123°25'0 0.1
2017-Dec-07 20:59N 48°08' W 123°25'0 0.0
2017-Dec-07 20:29N 48°08' W 123°25'0 0.0
2017-Dec-07 19:59N 48°08' W 123°25'0 0.1
2017-Dec-07 19:20N 48°08' W 123°25'0 0.2
2017-Dec-07 19:00N 48°08' W 123°25'0 0.1
2017-Dec-07 18:30N 48°08' W 123°25'0 0.1
2017-Dec-07 17:57N 48°08' W 123°25'0 0.1
2017-Dec-07 17:29N 48°08' W 123°25'0 0.1
2017-Dec-07 17:00N 48°08' W 123°25'0 0.0
2017-Dec-07 16:30N 48°08' W 123°25'0 0.1
2017-Dec-07 16:00N 48°08' W 123°25'0 0.1
2017-Dec-07 15:09N 48°08' W 123°25'0 0.3
2017-Dec-07 15:00N 48°08' W 123°25'0 0.1
2017-Dec-07 14:21N 48°08' W 123°25'0 0.2
2017-Dec-07 13:59N 48°08' W 123°25'0 0.0
2017-Dec-07 13:30N 48°08' W 123°25'0 0.1
2017-Dec-07 12:54N 48°08' W 123°25'0 0.1
2017-Dec-07 12:30N 48°08' W 123°25'0 0.0
2017-Dec-07 11:59N 48°08' W 123°25'0 0.1
2017-Dec-07 11:27N 48°08' W 123°25'0 0.1
2017-Dec-07 10:53N 48°08' W 123°25'0 0.1
2017-Dec-07 10:27N 48°08' W 123°25'0 0.0
2017-Dec-07 09:59N 48°08' W 123°25'0 0.1
2017-Dec-07 09:30N 48°08' W 123°25'0 0.0
2017-Dec-07 09:00N 48°08' W 123°25'0 0.1
2017-Dec-07 08:27N 48°08' W 123°25'0 0.1
2017-Dec-07 08:00N 48°08' W 123°25'0 0.1
2017-Dec-07 07:27N 48°08' W 123°25'0 0.1
2017-Dec-07 07:00N 48°08' W 123°25'0 0.0
2017-Dec-07 06:27N 48°08' W 123°25'0 0.1
2017-Dec-07 06:00N 48°08' W 123°25'0 0.1
2017-Dec-07 05:29N 48°08' W 123°25'0 0.1
2017-Dec-07 05:00N 48°08' W 123°25'0 0.1
2017-Dec-07 04:30N 48°08' W 123°25'0 0.1
2017-Dec-07 03:54N 48°08' W 123°25'0 0.0
2017-Dec-07 03:30N 48°08' W 123°25'0 0.0
2017-Dec-07 02:59N 48°08' W 123°25'0 0.1
2017-Dec-07 02:29N 48°08' W 123°25'0 0.0
2017-Dec-07 02:00N 48°08' W 123°25'0 0.0
2017-Dec-07 01:29N 48°08' W 123°25'0 0.1
2017-Dec-07 00:54N 48°08' W 123°25'0 0.2
2017-Dec-07 00:21N 48°08' W 123°25'0 0.1
2017-Dec-06 23:54N 48°08' W 123°25'0 0.0
2017-Dec-06 23:21N 48°08' W 123°25'0 0.0
2017-Dec-06 22:53N 48°08' W 123°25'0 0.0
2017-Dec-06 22:00N 48°08' W 123°25'0 0.0
2017-Dec-06 21:29N 48°08' W 123°25'0 0.0
2017-Dec-06 20:56N 48°08' W 123°25'  
2017-Dec-04 10:23N 48°08' W 123°25'0 0.0
2017-Dec-04 10:00N 48°08' W 123°25'0 0.0
2017-Dec-04 09:30N 48°08' W 123°25'0 0.0
2017-Dec-04 09:00N 48°08' W 123°25'0 0.0
2017-Dec-04 08:23N 48°08' W 123°25'0 0.0
2017-Dec-04 07:56N 48°08' W 123°25'0 0.0
2017-Dec-04 07:30N 48°08' W 123°25'0 0.1
2017-Dec-04 06:56N 48°08' W 123°25'0 0.0
2017-Dec-04 06:30N 48°08' W 123°25'0 0.0
2017-Dec-04 05:59N 48°08' W 123°25'0 0.1
2017-Dec-04 05:29N 48°08' W 123°25'0 0.0
2017-Dec-04 04:57N 48°08' W 123°25'0 0.1
2017-Dec-04 04:30N 48°08' W 123°25'0 0.0
2017-Dec-04 03:59N 48°08' W 123°25'0 0.1
2017-Dec-04 03:30N 48°08' W 123°25'0 0.1
2017-Dec-04 03:00N 48°08' W 123°25'0 0.1
2017-Dec-04 02:30N 48°08' W 123°25'0 0.1
2017-Dec-04 01:54N 48°08' W 123°25'0 0.1
2017-Dec-04 01:30N 48°08' W 123°25'0 0.1
2017-Dec-04 01:00N 48°08' W 123°25'0 0.1
2017-Dec-04 00:30N 48°08' W 123°25'0 0.1
2017-Dec-03 23:59N 48°08' W 123°25'0 0.0
2017-Dec-03 23:30N 48°08' W 123°25'0 0.0
2017-Dec-03 23:00N 48°08' W 123°25'0 0.0
2017-Dec-03 22:30N 48°08' W 123°25'0 0.1
2017-Dec-03 21:59N 48°08' W 123°25'0 0.1
2017-Dec-03 21:26N 48°08' W 123°25'0 0.0
2017-Dec-03 20:56N 48°08' W 123°25'0 0.0
2017-Dec-03 20:29N 48°08' W 123°25'0 0.3
2017-Dec-03 20:00N 48°08' W 123°25'0 0.3
2017-Dec-03 19:24N 48°08' W 123°25'0 0.2
2017-Dec-03 19:00N 48°08' W 123°25'0 0.1
2017-Dec-03 18:29N 48°08' W 123°25'0 0.1
2017-Dec-03 17:57N 48°08' W 123°25'0 0.1
2017-Dec-03 17:30N 48°08' W 123°25'0 0.2
2017-Dec-03 16:59N 48°08' W 123°25'0 0.0
2017-Dec-03 16:30N 48°08' W 123°25'0 0.0
2017-Dec-03 16:00N 48°08' W 123°25'0 0.0
2017-Dec-03 15:30N 48°08' W 123°25'0 0.1
2017-Dec-03 15:00N 48°08' W 123°25'0 0.1
2017-Dec-03 14:30N 48°08' W 123°25'0 0.3
2017-Dec-03 13:59N 48°08' W 123°25'0 0.0
2017-Dec-03 13:30N 48°08' W 123°25'0 0.0
2017-Dec-03 12:57N 48°08' W 123°25'0 0.0
2017-Dec-03 12:30N 48°08' W 123°25'0 0.1
2017-Dec-03 11:56N 48°08' W 123°25'0 0.1
2017-Dec-03 11:29N 48°08' W 123°25'0 0.0
2017-Dec-03 10:54N 48°08' W 123°25'0 0.0
2017-Dec-03 10:30N 48°08' W 123°25'0 0.0
2017-Dec-03 09:48N 48°08' W 123°25'0 0.0
2017-Dec-03 09:29N 48°08' W 123°25'0 0.0
2017-Dec-03 08:59N 48°08' W 123°25'0 0.1
2017-Dec-03 08:23N 48°08' W 123°25'0 0.3
2017-Dec-03 07:57N 48°08' W 123°25'0 0.2
2017-Dec-03 07:30N 48°08' W 123°25'0 0.1
2017-Dec-03 06:59N 48°08' W 123°25'0 0.1
2017-Dec-03 06:26N 48°08' W 123°25'0 0.1
2017-Dec-03 06:00N 48°08' W 123°25'0 0.1
2017-Dec-03 05:24N 48°08' W 123°25'0 0.2
2017-Dec-03 04:59N 48°08' W 123°25'0 0.1
2017-Dec-03 04:26N 48°08' W 123°25'0 0.2
2017-Dec-03 03:59N 48°08' W 123°25'0 0.1
2017-Dec-03 03:29N 48°08' W 123°25'0 0.1
2017-Dec-03 02:56N 48°08' W 123°25'0 0.0
2017-Dec-03 02:30N 48°08' W 123°25'0 0.0
2017-Dec-03 02:00N 48°08' W 123°25'0 0.0
2017-Dec-03 01:23N 48°08' W 123°25'0 0.0
2017-Dec-03 00:50N 48°08' W 123°25'0 0.0
2017-Dec-03 00:24N 48°08' W 123°25'0 0.0
2017-Dec-03 00:00N 48°08' W 123°25'0 0.1
2017-Dec-02 23:26N 48°08' W 123°25'0 0.0
2017-Dec-02 23:00N 48°08' W 123°25'0 0.0
2017-Dec-02 22:26N 48°08' W 123°25'0 0.1
2017-Dec-02 21:47N 48°08' W 123°25'0 0.1
2017-Dec-02 21:26N 48°08' W 123°25'0 0.0
2017-Dec-02 20:54N 48°08' W 123°25'0 0.0
2017-Dec-02 20:23N 48°08' W 123°25'0 0.1
2017-Dec-02 19:57N 48°08' W 123°25'0 0.1
2017-Dec-02 19:30N 48°08' W 123°25'0 0.1
2017-Dec-02 19:00N 48°08' W 123°25'0 0.1
2017-Dec-02 18:30N 48°08' W 123°25'0 0.0
2017-Dec-02 17:59N 48°08' W 123°25'0 0.1
2017-Dec-02 17:26N 48°08' W 123°25'0 0.0
2017-Dec-02 16:59N 48°08' W 123°25'0 0.0
2017-Dec-02 16:21N 48°08' W 123°25'0 0.0
2017-Dec-02 15:59N 48°08' W 123°25'0 0.0
2017-Dec-02 15:27N 48°08' W 123°25'0 0.0
2017-Dec-02 14:59N 48°08' W 123°25'0 0.0
2017-Dec-02 14:29N 48°08' W 123°25'0 0.0
2017-Dec-02 14:00N 48°08' W 123°25'0 0.0
2017-Dec-02 13:27N 48°08' W 123°25'0 0.0
2017-Dec-02 12:56N 48°08' W 123°25'0 0.0
2017-Dec-02 12:30N 48°08' W 123°25'0 0.1
2017-Dec-02 11:56N 48°08' W 123°25'0 0.1
2017-Dec-02 11:29N 48°08' W 123°25'0 0.1
2017-Dec-02 11:00N 48°08' W 123°25'0 0.1
2017-Dec-02 10:29N 48°08' W 123°25'0 0.1
2017-Dec-02 10:00N 48°08' W 123°25'0 0.0
2017-Dec-02 09:30N 48°08' W 123°25'0 0.0
2017-Dec-02 09:00N 48°08' W 123°25'0 0.0
2017-Dec-02 08:30N 48°08' W 123°25'0 0.0
2017-Dec-02 08:00N 48°08' W 123°25'0 0.2
2017-Dec-02 07:29N 48°08' W 123°25'0 0.2
2017-Dec-02 06:59N 48°08' W 123°25'0 0.1
2017-Dec-02 06:30N 48°08' W 123°25'0 0.0
2017-Dec-02 06:00N 48°08' W 123°25'0 0.1
2017-Dec-02 05:30N 48°08' W 123°25'0 0.3
2017-Dec-02 04:54N 48°08' W 123°25'0 0.2
2017-Dec-02 04:30N 48°08' W 123°25'0 0.1
2017-Dec-02 03:53N 48°08' W 123°25'0 0.1
2017-Dec-02 03:30N 48°08' W 123°25'0 0.0
2017-Dec-02 02:59N 48°08' W 123°25'0 0.0
2017-Dec-02 02:27N 48°08' W 123°25'0 0.0
2017-Dec-02 01:57N 48°08' W 123°25'0 0.1
2017-Dec-02 01:29N 48°08' W 123°25'0 0.1
2017-Dec-02 01:00N 48°08' W 123°25'0 0.2
2017-Dec-02 00:30N 48°08' W 123°25'0 0.1
2017-Dec-01 23:59N 48°08' W 123°25'0 0.1
2017-Dec-01 23:26N 48°08' W 123°25'0 0.0
2017-Dec-01 23:00N 48°08' W 123°25'0 0.0
2017-Dec-01 22:29N 48°08' W 123°25'0 0.0
2017-Dec-01 22:00N 48°08' W 123°25'0 0.0
2017-Dec-01 21:30N 48°08' W 123°25'0 0.0
2017-Dec-01 20:56N 48°08' W 123°25'0 0.1
2017-Dec-01 20:29N 48°08' W 123°25'0 0.1
2017-Dec-01 19:57N 48°08' W 123°25'0 0.1
2017-Dec-01 19:24N 48°08' W 123°25'0 0.2
2017-Dec-01 19:00N 48°08' W 123°25'0 0.1
2017-Dec-01 18:30N 48°08' W 123°25'0 0.1
2017-Dec-01 17:57N 48°08' W 123°25'0 0.0
2017-Dec-01 17:30N 48°08' W 123°25'0 0.0
2017-Dec-01 16:51N 48°08' W 123°25'0 0.1
2017-Dec-01 16:30N 48°08' W 123°25'  
Track history (hours):
 
Tides and Currents Weather Stations Pressure Air Temp Water Temp Dewpoint Dewpoint Depression Visibility Wind Speed Wind Dir Waves Ship Positions

Cap Lara

Last reported at 2017-Dec-11 15:55 UTC. Time now 2017-Dec-14 08:22 UTC.
Position N 45°41' W 128°58'.

Length 274 m; draft 9 m.

Type: Tanker. MMSI: 240592000.

Date/timePositionNaut miles runAvg speedWind from/ knotsBaromVisibWave heightAir tempDewpointWater temp
2017-Dec-11 15:55N 45°41' W 128°58'1010.6
2017-Dec-11 14:58N 45°51' W 128°56'3 6.7
2017-Dec-11 14:27N 45°54' W 128°54'511.1
2017-Dec-11 14:00N 45°58' W 128°50'612.8
2017-Dec-11 13:31N 46°02' W 128°44'1712.9
2017-Dec-11 12:14N 46°14' W 128°27'313.0
2017-Dec-11 12:01N 46°16' W 128°24'612.9
2017-Dec-11 11:31N 46°21' W 128°17'612.8
2017-Dec-11 11:01N 46°25' W 128°11'713.0
2017-Dec-11 10:31N 46°30' W 128°04'612.9
2017-Dec-11 10:01N 46°34' W 127°57'713.1
2017-Dec-11 09:30N 46°39' W 127°50'713.2
2017-Dec-11 09:01N 46°43' W 127°43'913.2
2017-Dec-11 08:20N 46°49' W 127°34'413.2
2017-Dec-11 08:01N 46°52' W 127°29'713.1
2017-Dec-11 07:31N 46°57' W 127°22'713.0
2017-Dec-11 07:00N 47°01' W 127°16'713.0
2017-Dec-11 06:30N 47°06' W 127°09'813.1
2017-Dec-11 05:55N 47°11' W 127°00'513.1
2017-Dec-11 05:30N 47°15' W 126°55'713.2
2017-Dec-11 05:00N 47°20' W 126°48'713.1
2017-Dec-11 04:31N 47°24' W 126°41'713.0
2017-Dec-11 03:58N 47°29' W 126°34'613.0
2017-Dec-11 03:30N 47°33' W 126°27'712.9
2017-Dec-11 03:00N 47°38' W 126°20'612.7
2017-Dec-11 02:31N 47°42' W 126°14'712.9
2017-Dec-11 01:59N 47°47' W 126°06'613.1
2017-Dec-11 01:30N 47°51' W 125°60'713.2
2017-Dec-11 01:00N 47°56' W 125°52'713.4
2017-Dec-11 00:30N 48°00' W 125°45'713.6
2017-Dec-11 00:00N 48°05' W 125°38'714.1
2017-Dec-10 23:30N 48°10' W 125°31'713.6
2017-Dec-10 23:00N 48°15' W 125°23'713.2
2017-Dec-10 22:30N 48°19' W 125°16'713.6
2017-Dec-10 22:00N 48°24' W 125°09'714.1
2017-Dec-10 21:31N 48°30' W 125°02'714.3
2017-Dec-10 21:01N 48°31' W 124°52'714.0
2017-Dec-10 20:31N 48°30' W 124°41'714.7
2017-Dec-10 20:01N 48°27' W 124°31'815.7
2017-Dec-10 19:30N 48°24' W 124°20'714.9
2017-Dec-10 19:01N 48°21' W 124°10'814.9
2017-Dec-10 18:30N 48°18' W 123°59'714.8
2017-Dec-10 18:00N 48°17' W 123°48'714.3
2017-Dec-10 17:31N 48°16' W 123°38'713.6
2017-Dec-10 17:00N 48°14' W 123°28'612.3
2017-Dec-10 16:30N 48°09' W 123°23'2 2.7
2017-Dec-10 15:57N 48°08' W 123°25'0 0.0
2017-Dec-10 15:24N 48°08' W 123°25'0 0.0
2017-Dec-10 15:00N 48°08' W 123°25'0 0.1
2017-Dec-10 14:30N 48°08' W 123°25'0 0.0
2017-Dec-10 13:57N 48°08' W 123°25'0 0.0
2017-Dec-10 13:27N 48°08' W 123°25'0 0.0
2017-Dec-10 13:00N 48°08' W 123°25'0 0.0
2017-Dec-10 12:30N 48°08' W 123°25'0 0.0
2017-Dec-10 12:00N 48°08' W 123°25'0 0.2
2017-Dec-10 11:30N 48°08' W 123°25'0 0.3
2017-Dec-10 11:00N 48°08' W 123°25'0 0.1
2017-Dec-10 10:27N 48°08' W 123°25'0 0.0
2017-Dec-10 09:57N 48°08' W 123°25'0 0.1
2017-Dec-10 09:27N 48°08' W 123°25'0 0.1
2017-Dec-10 09:00N 48°08' W 123°25'0 0.0
2017-Dec-10 08:27N 48°08' W 123°25'0 0.0
2017-Dec-10 08:00N 48°08' W 123°25'0 0.0
2017-Dec-10 07:27N 48°08' W 123°25'0 0.0
2017-Dec-10 07:00N 48°08' W 123°25'0 0.1
2017-Dec-10 06:24N 48°08' W 123°25'0 0.1
2017-Dec-10 04:24N 48°08' W 123°25'0 0.1
2017-Dec-10 03:39N 48°08' W 123°25'0 0.0
2017-Dec-10 03:24N 48°08' W 123°25'0 0.0
2017-Dec-10 03:00N 48°08' W 123°25'0 0.2
2017-Dec-10 02:30N 48°08' W 123°25'0 0.3
2017-Dec-10 02:00N 48°08' W 123°25'0 0.3
2017-Dec-10 01:30N 48°08' W 123°25'0 0.2
2017-Dec-10 00:54N 48°08' W 123°25'0 0.0
2017-Dec-10 00:27N 48°08' W 123°25'0 0.0
2017-Dec-09 23:45N 48°08' W 123°25'0 0.0
2017-Dec-09 23:30N 48°08' W 123°25'0 0.1
2017-Dec-09 23:00N 48°08' W 123°25'1 1.5
2017-Dec-09 22:30N 48°08' W 123°24'4 7.7
2017-Dec-09 22:00N 48°10' W 123°19'815.6
2017-Dec-09 21:30N 48°15' W 123°10'815.5
2017-Dec-09 21:00N 48°19' W 123°00'816.1
2017-Dec-09 20:30N 48°24' W 122°50'714.6
2017-Dec-09 20:00N 48°30' W 122°44'714.4
2017-Dec-09 19:30N 48°37' W 122°45'713.2
2017-Dec-09 19:00N 48°44' W 122°46'612.7
2017-Dec-09 18:30N 48°50' W 122°46'2 0.1
2017-Dec-08 11:24N 48°52' W 122°46'0 1.2
2017-Dec-08 11:00N 48°52' W 122°46'3 6.5
2017-Dec-08 10:28N 48°52' W 122°52'511.5
2017-Dec-08 10:00N 48°49' W 122°58'5 9.5
2017-Dec-08 09:29N 48°45' W 123°04'4 9.3
2017-Dec-08 09:00N 48°43' W 123°10'4 8.4
2017-Dec-08 08:30N 48°41' W 123°15'4 8.5
2017-Dec-08 08:01N 48°37' W 123°14'4 8.6
2017-Dec-08 07:30N 48°33' W 123°12'4 8.2
2017-Dec-08 07:00N 48°29' W 123°10'4 7.9
2017-Dec-08 06:30N 48°25' W 123°10'4 7.3
2017-Dec-08 06:00N 48°22' W 123°13'611.2
2017-Dec-08 05:30N 48°17' W 123°17'713.1
2017-Dec-08 05:00N 48°11' W 123°21'4 8.5
2017-Dec-08 04:31N 48°08' W 123°25'0 0.2
2017-Dec-08 04:00N 48°08' W 123°25'0 0.0
2017-Dec-08 03:29N 48°08' W 123°25'0 0.0
2017-Dec-08 02:56N 48°08' W 123°25'0 0.0
2017-Dec-08 02:30N 48°08' W 123°25'0 0.0
2017-Dec-08 01:59N 48°08' W 123°25'0 0.1
2017-Dec-08 01:30N 48°08' W 123°25'0 0.1
2017-Dec-08 01:00N 48°08' W 123°25'0 0.0
2017-Dec-08 00:29N 48°08' W 123°25'0 0.1
2017-Dec-07 23:53N 48°08' W 123°25'0 0.0
2017-Dec-07 23:14N 48°08' W 123°25'0 0.1
2017-Dec-07 22:56N 48°08' W 123°25'0 0.1
2017-Dec-07 22:30N 48°08' W 123°25'0 0.1
2017-Dec-07 21:57N 48°08' W 123°25'0 0.1
2017-Dec-07 21:26N 48°08' W 123°25'0 0.1
2017-Dec-07 20:59N 48°08' W 123°25'0 0.0
2017-Dec-07 20:29N 48°08' W 123°25'0 0.0
2017-Dec-07 19:59N 48°08' W 123°25'0 0.1
2017-Dec-07 19:20N 48°08' W 123°25'0 0.2
2017-Dec-07 19:00N 48°08' W 123°25'0 0.1
2017-Dec-07 18:30N 48°08' W 123°25'0 0.1
2017-Dec-07 17:57N 48°08' W 123°25'0 0.1
2017-Dec-07 17:29N 48°08' W 123°25'0 0.1
2017-Dec-07 17:00N 48°08' W 123°25'0 0.0
2017-Dec-07 16:30N 48°08' W 123°25'0 0.1
2017-Dec-07 16:00N 48°08' W 123°25'0 0.1
2017-Dec-07 15:09N 48°08' W 123°25'0 0.3
2017-Dec-07 15:00N 48°08' W 123°25'0 0.1
2017-Dec-07 14:21N 48°08' W 123°25'0 0.2
2017-Dec-07 13:59N 48°08' W 123°25'0 0.0
2017-Dec-07 13:30N 48°08' W 123°25'0 0.1
2017-Dec-07 12:54N 48°08' W 123°25'0 0.1
2017-Dec-07 12:30N 48°08' W 123°25'0 0.0
2017-Dec-07 11:59N 48°08' W 123°25'0 0.1
2017-Dec-07 11:27N 48°08' W 123°25'0 0.1
2017-Dec-07 10:53N 48°08' W 123°25'0 0.1
2017-Dec-07 10:27N 48°08' W 123°25'0 0.0
2017-Dec-07 09:59N 48°08' W 123°25'0 0.1
2017-Dec-07 09:30N 48°08' W 123°25'0 0.0
2017-Dec-07 09:00N 48°08' W 123°25'0 0.1
2017-Dec-07 08:27N 48°08' W 123°25'0 0.1
2017-Dec-07 08:00N 48°08' W 123°25'0 0.1
2017-Dec-07 07:27N 48°08' W 123°25'0 0.1
2017-Dec-07 07:00N 48°08' W 123°25'0 0.0
2017-Dec-07 06:27N 48°08' W 123°25'0 0.1
2017-Dec-07 06:00N 48°08' W 123°25'0 0.1
2017-Dec-07 05:29N 48°08' W 123°25'0 0.1
2017-Dec-07 05:00N 48°08' W 123°25'0 0.1
2017-Dec-07 04:30N 48°08' W 123°25'0 0.1
2017-Dec-07 03:54N 48°08' W 123°25'0 0.0
2017-Dec-07 03:30N 48°08' W 123°25'0 0.0
2017-Dec-07 02:59N 48°08' W 123°25'0 0.1
2017-Dec-07 02:29N 48°08' W 123°25'0 0.0
2017-Dec-07 02:00N 48°08' W 123°25'0 0.0
2017-Dec-07 01:29N 48°08' W 123°25'0 0.1
2017-Dec-07 00:54N 48°08' W 123°25'0 0.2
2017-Dec-07 00:21N 48°08' W 123°25'0 0.1
2017-Dec-06 23:54N 48°08' W 123°25'0 0.0
2017-Dec-06 23:21N 48°08' W 123°25'0 0.0
2017-Dec-06 22:53N 48°08' W 123°25'0 0.0
2017-Dec-06 22:00N 48°08' W 123°25'0 0.0
2017-Dec-06 21:29N 48°08' W 123°25'0 0.0
2017-Dec-06 20:56N 48°08' W 123°25'  
2017-Dec-04 10:23N 48°08' W 123°25'0 0.0
2017-Dec-04 10:00N 48°08' W 123°25'0 0.0
2017-Dec-04 09:30N 48°08' W 123°25'0 0.0
2017-Dec-04 09:00N 48°08' W 123°25'0 0.0
2017-Dec-04 08:23N 48°08' W 123°25'0 0.0
2017-Dec-04 07:56N 48°08' W 123°25'0 0.0
2017-Dec-04 07:30N 48°08' W 123°25'0 0.1
2017-Dec-04 06:56N 48°08' W 123°25'0 0.0
2017-Dec-04 06:30N 48°08' W 123°25'0 0.0
2017-Dec-04 05:59N 48°08' W 123°25'0 0.1
2017-Dec-04 05:29N 48°08' W 123°25'0 0.0
2017-Dec-04 04:57N 48°08' W 123°25'0 0.1
2017-Dec-04 04:30N 48°08' W 123°25'0 0.0
2017-Dec-04 03:59N 48°08' W 123°25'0 0.1
2017-Dec-04 03:30N 48°08' W 123°25'0 0.1
2017-Dec-04 03:00N 48°08' W 123°25'0 0.1
2017-Dec-04 02:30N 48°08' W 123°25'0 0.1
2017-Dec-04 01:54N 48°08' W 123°25'0 0.1
2017-Dec-04 01:30N 48°08' W 123°25'0 0.1
2017-Dec-04 01:00N 48°08' W 123°25'0 0.1
2017-Dec-04 00:30N 48°08' W 123°25'0 0.1
2017-Dec-03 23:59N 48°08' W 123°25'0 0.0
2017-Dec-03 23:30N 48°08' W 123°25'0 0.0
2017-Dec-03 23:00N 48°08' W 123°25'0 0.0
2017-Dec-03 22:30N 48°08' W 123°25'0 0.1
2017-Dec-03 21:59N 48°08' W 123°25'0 0.1
2017-Dec-03 21:26N 48°08' W 123°25'0 0.0
2017-Dec-03 20:56N 48°08' W 123°25'0 0.0
2017-Dec-03 20:29N 48°08' W 123°25'0 0.3
2017-Dec-03 20:00N 48°08' W 123°25'0 0.3
2017-Dec-03 19:24N 48°08' W 123°25'0 0.2
2017-Dec-03 19:00N 48°08' W 123°25'0 0.1
2017-Dec-03 18:29N 48°08' W 123°25'0 0.1
2017-Dec-03 17:57N 48°08' W 123°25'0 0.1
2017-Dec-03 17:30N 48°08' W 123°25'0 0.2
2017-Dec-03 16:59N 48°08' W 123°25'0 0.0
2017-Dec-03 16:30N 48°08' W 123°25'0 0.0
2017-Dec-03 16:00N 48°08' W 123°25'0 0.0
2017-Dec-03 15:30N 48°08' W 123°25'0 0.1
2017-Dec-03 15:00N 48°08' W 123°25'0 0.1
2017-Dec-03 14:30N 48°08' W 123°25'0 0.3
2017-Dec-03 13:59N 48°08' W 123°25'0 0.0
2017-Dec-03 13:30N 48°08' W 123°25'0 0.0
2017-Dec-03 12:57N 48°08' W 123°25'0 0.0
2017-Dec-03 12:30N 48°08' W 123°25'0 0.1
2017-Dec-03 11:56N 48°08' W 123°25'0 0.1
2017-Dec-03 11:29N 48°08' W 123°25'0 0.0
2017-Dec-03 10:54N 48°08' W 123°25'0 0.0
2017-Dec-03 10:30N 48°08' W 123°25'0 0.0
2017-Dec-03 09:48N 48°08' W 123°25'0 0.0
2017-Dec-03 09:29N 48°08' W 123°25'0 0.0
2017-Dec-03 08:59N 48°08' W 123°25'0 0.1
2017-Dec-03 08:23N 48°08' W 123°25'0 0.3
2017-Dec-03 07:57N 48°08' W 123°25'0 0.2
2017-Dec-03 07:30N 48°08' W 123°25'0 0.1
2017-Dec-03 06:59N 48°08' W 123°25'0 0.1
2017-Dec-03 06:26N 48°08' W 123°25'0 0.1
2017-Dec-03 06:00N 48°08' W 123°25'0 0.1
2017-Dec-03 05:24N 48°08' W 123°25'0 0.2
2017-Dec-03 04:59N 48°08' W 123°25'0 0.1
2017-Dec-03 04:26N 48°08' W 123°25'0 0.2
2017-Dec-03 03:59N 48°08' W 123°25'0 0.1
2017-Dec-03 03:29N 48°08' W 123°25'0 0.1
2017-Dec-03 02:56N 48°08' W 123°25'0 0.0
2017-Dec-03 02:30N 48°08' W 123°25'0 0.0
2017-Dec-03 02:00N 48°08' W 123°25'0 0.0
2017-Dec-03 01:23N 48°08' W 123°25'0 0.0
2017-Dec-03 00:50N 48°08' W 123°25'0 0.0
2017-Dec-03 00:24N 48°08' W 123°25'0 0.0
2017-Dec-03 00:00N 48°08' W 123°25'0 0.1
2017-Dec-02 23:26N 48°08' W 123°25'0 0.0
2017-Dec-02 23:00N 48°08' W 123°25'0 0.0
2017-Dec-02 22:26N 48°08' W 123°25'0 0.1
2017-Dec-02 21:47N 48°08' W 123°25'0 0.1
2017-Dec-02 21:26N 48°08' W 123°25'0 0.0
2017-Dec-02 20:54N 48°08' W 123°25'0 0.0
2017-Dec-02 20:23N 48°08' W 123°25'0 0.1
2017-Dec-02 19:57N 48°08' W 123°25'0 0.1
2017-Dec-02 19:30N 48°08' W 123°25'0 0.1
2017-Dec-02 19:00N 48°08' W 123°25'0 0.1
2017-Dec-02 18:30N 48°08' W 123°25'0 0.0
2017-Dec-02 17:59N 48°08' W 123°25'0 0.1
2017-Dec-02 17:26N 48°08' W 123°25'0 0.0
2017-Dec-02 16:59N 48°08' W 123°25'0 0.0
2017-Dec-02 16:21N 48°08' W 123°25'0 0.0
2017-Dec-02 15:59N 48°08' W 123°25'0 0.0
2017-Dec-02 15:27N 48°08' W 123°25'0 0.0
2017-Dec-02 14:59N 48°08' W 123°25'0 0.0
2017-Dec-02 14:29N 48°08' W 123°25'0 0.0
2017-Dec-02 14:00N 48°08' W 123°25'0 0.0
2017-Dec-02 13:27N 48°08' W 123°25'0 0.0
2017-Dec-02 12:56N 48°08' W 123°25'0 0.0
2017-Dec-02 12:30N 48°08' W 123°25'0 0.1
2017-Dec-02 11:56N 48°08' W 123°25'0 0.1
2017-Dec-02 11:29N 48°08' W 123°25'0 0.1
2017-Dec-02 11:00N 48°08' W 123°25'0 0.1
2017-Dec-02 10:29N 48°08' W 123°25'0 0.1
2017-Dec-02 10:00N 48°08' W 123°25'0 0.0
2017-Dec-02 09:30N 48°08' W 123°25'0 0.0
2017-Dec-02 09:00N 48°08' W 123°25'0 0.0
2017-Dec-02 08:30N 48°08' W 123°25'0 0.0
2017-Dec-02 08:00N 48°08' W 123°25'0 0.2
2017-Dec-02 07:29N 48°08' W 123°25'0 0.2
2017-Dec-02 06:59N 48°08' W 123°25'0 0.1
2017-Dec-02 06:30N 48°08' W 123°25'0 0.0
2017-Dec-02 06:00N 48°08' W 123°25'0 0.1
2017-Dec-02 05:30N 48°08' W 123°25'0 0.3
2017-Dec-02 04:54N 48°08' W 123°25'0 0.2
2017-Dec-02 04:30N 48°08' W 123°25'0 0.1
2017-Dec-02 03:53N 48°08' W 123°25'0 0.1
2017-Dec-02 03:30N 48°08' W 123°25'0 0.0
2017-Dec-02 02:59N 48°08' W 123°25'0 0.0
2017-Dec-02 02:27N 48°08' W 123°25'0 0.0
2017-Dec-02 01:57N 48°08' W 123°25'0 0.1
2017-Dec-02 01:29N 48°08' W 123°25'0 0.1
2017-Dec-02 01:00N 48°08' W 123°25'0 0.2
2017-Dec-02 00:30N 48°08' W 123°25'0 0.1
2017-Dec-01 23:59N 48°08' W 123°25'0 0.1
2017-Dec-01 23:26N 48°08' W 123°25'0 0.0
2017-Dec-01 23:00N 48°08' W 123°25'0 0.0
2017-Dec-01 22:29N 48°08' W 123°25'0 0.0
2017-Dec-01 22:00N 48°08' W 123°25'0 0.0
2017-Dec-01 21:30N 48°08' W 123°25'0 0.0
2017-Dec-01 20:56N 48°08' W 123°25'0 0.1
2017-Dec-01 20:29N 48°08' W 123°25'0 0.1
2017-Dec-01 19:57N 48°08' W 123°25'0 0.1
2017-Dec-01 19:24N 48°08' W 123°25'0 0.2
2017-Dec-01 19:00N 48°08' W 123°25'0 0.1
2017-Dec-01 18:30N 48°08' W 123°25'0 0.1
2017-Dec-01 17:57N 48°08' W 123°25'0 0.0
2017-Dec-01 17:30N 48°08' W 123°25'0 0.0
2017-Dec-01 16:51N 48°08' W 123°25'0 0.1
2017-Dec-01 16:30N 48°08' W 123°25'  

Dump ship's entire track history